Time;durP1;ratioP1;P1;durP2;ratioP2;P2;SDS_P1;SDS_P2;PMS_P1;PMS_P2;Temp;Humidity;BMP_temperature;BMP_pressure;BME280_temperature;BME280_humidity;BME280_pressure;Samples;Min_cycle;Max_cycle;Signal;HPM_P1;HPM_P2
2020/12/07 10:14:35;;;;;;;4.50;2.30;;;17.50;66.90;;;;;;5141343;27;20469;-74
2020/12/07 10:17:01;;;;;;;4.35;2.58;;;17.50;67.30;;;;;;5126235;27;20054;-80
2020/12/07 10:19:27;;;;;;;9.48;2.65;;;17.40;67.50;;;;;;5063182;28;20040;-76
2020/12/07 10:21:53;;;;;;;4.72;2.47;;;17.40;68.30;;;;;;5084115;28;20070;-78
2020/12/07 10:25:19;;;;;;;4.85;2.33;;;17.50;68.30;;;;;;5133849;27;759056;-72
2020/12/07 10:28:32;;;;;;;9.23;3.35;;;17.70;67.10;;;;;;5128783;27;20456;-77
2020/12/07 10:30:58;;;;;;;4.13;2.60;;;17.80;68.40;;;;;;5132499;27;20070;-70
2020/12/07 10:33:24;;;;;;;5.70;2.25;;;18.00;67.40;;;;;;5111537;27;20599;-70
2020/12/07 10:38:13;;;;;;;2.67;2.33;;;18.10;66.60;;;;;;5123051;27;20432;-73
2020/12/07 10:40:39;;;;;;;5.28;2.35;;;18.20;66.90;;;;;;4985876;27;20047;-74
2020/12/07 10:43:05;;;;;;;3.90;2.10;;;18.20;66.60;;;;;;5114483;27;20047;-74
2020/12/07 10:45:31;;;;;;;4.95;2.55;;;18.30;66.90;;;;;;5122574;27;20039;-70
2020/12/07 10:49:51;;;;;;;6.72;2.17;;;18.30;66.40;;;;;;5115759;27;20482;-67
2020/12/07 10:52:17;;;;;;;2.78;2.58;;;18.40;71.30;;;;;;5110705;27;20561;-73
2020/12/07 10:54:43;;;;;;;4.85;2.20;;;19.20;67.30;;;;;;5109229;28;20053;-70
2020/12/07 10:57:09;;;;;;;2.40;2.20;;;19.30;66.10;;;;;;5110873;27;20082;-70
2020/12/07 11:01:55;;;;;;;3.85;2.10;;;19.00;65.10;;;;;;5128971;27;20402;-73
2020/12/07 11:05:19;;;;;;;6.40;2.70;;;18.80;64.60;;;;;;5125904;27;20414;-45
2020/12/07 11:07:47;;;;;;;13.23;2.78;;;18.60;65.60;;;;;;5124362;27;20047;-50
2020/12/07 11:10:33;;;;;;;3.53;2.38;;;18.30;65.80;;;;;;5105684;28;20050;-49
2020/12/07 11:13:04;;;;;;;4.97;2.47;;;18.00;66.10;;;;;;5120690;27;20040;-47
2020/12/07 11:15:30;;;;;;;5.40;2.15;;;17.90;66.80;;;;;;5113922;28;20051;-49
2020/12/07 11:20:04;;;;;;;2.63;2.42;;;17.90;66.90;;;;;;5127834;27;20451;-74
2020/12/07 11:22:30;;;;;;;6.28;2.72;;;18.20;67.70;;;;;;5111116;28;20047;-79
2020/12/07 11:25:16;;;;;;;5.82;2.33;;;18.20;67.40;;;;;;5089243;28;20522;-78
2020/12/07 11:27:42;;;;;;;4.85;2.20;;;18.10;67.80;;;;;;5105440;28;20039;-76
2020/12/07 11:30:07;;;;;;;5.53;2.22;;;18.10;67.70;;;;;;5119801;28;20193;-80
2020/12/07 11:32:33;;;;;;;2.88;2.38;;;18.00;68.00;;;;;;4913892;28;20111;-71
2020/12/07 11:34:59;;;;;;;4.15;2.58;;;18.00;67.90;;;;;;4906718;28;20065;-76
2020/12/07 11:37:25;;;;;;;3.88;2.00;;;18.00;68.10;;;;;;4984811;28;20049;-76
2020/12/07 11:40:14;;;;;;;2.70;2.17;;;17.90;68.20;;;;;;4957774;28;20413;-80
2020/12/07 11:43:14;;;;;;;5.35;2.40;;;17.70;68.10;;;;;;5043635;28;20045;-79
2020/12/07 11:45:44;;;;;;;4.15;2.28;;;17.50;68.90;;;;;;5041436;28;20043;-80
2020/12/07 11:48:29;;;;;;;3.30;2.15;;;17.50;69.30;;;;;;5030084;28;20053;-78
2020/12/07 11:50:55;;;;;;;3.65;2.38;;;17.40;69.20;;;;;;5030223;28;20096;-77
2020/12/07 11:53:21;;;;;;;6.85;2.33;;;17.30;69.00;;;;;;5042991;28;20535;-77
2020/12/07 11:55:46;;;;;;;9.10;2.72;;;17.30;69.20;;;;;;5047949;28;20493;-78
2020/12/07 11:58:32;;;;;;;4.50;1.88;;;17.20;69.50;;;;;;5056946;28;20944;-76
2020/12/07 12:00:58;;;;;;;21.50;2.22;;;17.20;69.80;;;;;;5055183;28;20053;-79
2020/12/07 12:41:01;;;;;;;2.20;1.30;;;17.40;69.10;;;;;;4729191;28;20428;-82
2020/12/07 12:43:27;;;;;;;3.03;1.70;;;17.50;69.20;;;;;;4881012;28;20129;-78
2020/12/07 12:46:13;;;;;;;2.58;1.45;;;17.60;68.80;;;;;;4946132;28;20047;-81
2020/12/07 12:48:39;;;;;;;3.20;1.25;;;17.60;68.80;;;;;;4964055;28;20051;-77
2020/12/07 12:51:07;;;;;;;2.20;1.40;;;17.60;68.80;;;;;;4961005;28;20829;-77
2020/12/07 12:53:53;;;;;;;1.50;1.30;;;17.70;68.90;;;;;;4960566;28;20388;-78
2020/12/07 12:56:39;;;;;;;1.00;1.00;;;17.70;69.00;;;;;;4959914;28;20058;-77
2020/12/07 12:59:24;;;;;;;3.67;1.45;;;17.70;69.40;;;;;;4951920;28;20522;-80
2020/12/07 13:01:50;;;;;;;1.52;1.30;;;17.70;68.70;;;;;;4955994;28;20046;-77
2020/12/07 13:04:36;;;;;;;1.83;1.05;;;17.80;68.90;;;;;;4951707;28;20043;-85
2020/12/07 13:07:22;;;;;;;3.78;1.08;;;17.80;68.80;;;;;;4935798;28;20052;-82
2020/12/07 13:10:08;;;;;;;1.33;1.08;;;17.80;68.90;;;;;;4948333;28;20097;-83
2020/12/07 13:12:53;;;;;;;3.70;1.00;;;17.80;68.90;;;;;;4946320;28;20051;-81
2020/12/07 13:15:46;;;;;;;2.17;0.85;;;17.80;68.80;;;;;;4945505;28;20626;-82
2020/12/07 13:18:52;;;;;;;2.22;0.93;;;17.80;68.70;;;;;;4934652;28;20754;-77
2020/12/07 13:27:44;;;;;;;1.20;0.90;;;17.90;68.90;;;;;;4957910;28;20065;-79
2020/12/07 13:29:53;;;;;;;1.67;0.77;;;17.90;68.60;;;;;;4960085;28;20142;-83
2020/12/07 13:32:19;;;;;;;3.85;1.02;;;17.90;69.00;;;;;;4958277;28;20113;-82
2020/12/07 13:34:45;;;;;;;0.90;0.90;;;17.90;68.60;;;;;;4929956;28;20054;-85
2020/12/07 13:37:31;;;;;;;0.70;0.70;;;17.90;68.20;;;;;;4944202;28;20040;-84
2020/12/07 13:40:17;;;;;;;1.52;0.63;;;17.90;68.10;;;;;;4980492;28;20055;-84
2020/12/07 13:42:42;;;;;;;1.48;0.70;;;17.90;67.90;;;;;;4965797;28;20050;-84
2020/12/07 13:45:09;;;;;;;1.40;0.68;;;17.80;67.80;;;;;;4993382;28;20043;-83
2020/12/07 13:47:55;;;;;;;1.23;0.60;;;17.80;67.90;;;;;;4958426;28;20050;-85
2020/12/07 13:50:20;;;;;;;1.02;0.63;;;17.80;67.80;;;;;;4967889;28;20360;-80
2020/12/07 13:52:46;;;;;;;3.97;0.80;;;17.80;67.80;;;;;;4955341;28;20042;-84
2020/12/07 13:55:12;;;;;;;0.60;0.60;;;17.70;67.70;;;;;;4955784;28;20044;-84
2020/12/07 13:57:38;;;;;;;1.15;0.50;;;17.70;67.70;;;;;;4955723;28;20042;-82
2020/12/07 14:00:05;;;;;;;0.82;0.50;;;17.80;67.80;;;;;;4971042;28;20489;-83
2020/12/07 14:02:51;;;;;;;0.60;0.60;;;17.70;67.40;;;;;;4985714;28;20058;-85
2020/12/07 14:05:17;;;;;;;1.02;0.60;;;17.70;67.40;;;;;;4972917;28;20039;-84
2020/12/07 14:07:42;;;;;;;0.98;0.50;;;17.70;67.40;;;;;;4971634;28;20048;-84
2020/12/07 14:10:11;;;;;;;1.85;0.80;;;17.80;67.00;;;;;;4970535;28;20031;-83
2020/12/07 14:12:37;;;;;;;0.65;0.60;;;17.80;66.90;;;;;;4971595;28;20099;-83
2020/12/07 14:15:23;;;;;;;0.90;0.63;;;17.80;66.90;;;;;;4971215;28;20061;-81
2020/12/07 14:23:28;;;;;;;2.65;0.93;;;17.90;66.70;;;;;;4972573;28;20042;-84
2020/12/07 14:39:44;;;;;;;2.63;1.02;;;17.80;67.10;;;;;;4967265;28;20134;-83
2020/12/07 14:42:31;;;;;;;1.52;0.57;;;17.80;67.00;;;;;;4943051;28;20085;-84
2020/12/07 14:44:56;;;;;;;1.65;0.70;;;17.80;67.20;;;;;;4968029;28;20562;-84
2020/12/07 14:47:46;;;;;;;0.55;0.50;;;17.80;67.40;;;;;;4970375;28;20051;-83
2020/12/07 14:50:45;;;;;;;4.32;0.95;;;17.80;67.30;;;;;;4961162;28;20053;-82
2020/12/07 14:53:18;;;;;;;0.82;0.60;;;17.70;67.40;;;;;;4971645;28;20491;-83
2020/12/07 14:56:10;;;;;;;0.50;0.50;;;17.70;67.40;;;;;;4969859;28;20055;-83
2020/12/07 15:05:22;;;;;;;0.98;0.70;;;17.60;67.50;;;;;;4962246;28;20090;-83
2020/12/07 15:07:20;;;;;;;0.80;0.63;;;17.60;67.40;;;;;;4955664;28;20052;-83
2020/12/07 15:16:29;;;;;;;0.80;0.57;;;17.60;67.20;;;;;;4959736;28;20043;-83
2020/12/07 15:19:15;;;;;;;0.98;0.63;;;17.60;67.20;;;;;;4952614;28;20398;-83
2020/12/07 15:21:40;;;;;;;0.40;0.40;;;17.60;67.40;;;;;;4951060;28;20050;-84
2020/12/07 15:24:26;;;;;;;1.73;0.77;;;17.70;67.50;;;;;;4950870;28;20435;-83
2020/12/07 15:26:52;;;;;;;1.10;0.60;;;17.60;67.50;;;;;;4950711;28;20043;-83
2020/12/07 15:29:38;;;;;;;0.75;0.52;;;17.60;67.40;;;;;;4959342;28;20062;-82
2020/12/07 15:32:03;;;;;;;3.80;0.80;;;17.60;67.60;;;;;;4951156;28;20043;-83
2020/12/07 15:34:29;;;;;;;0.50;0.50;;;17.60;67.50;;;;;;4950562;28;20043;-80
2020/12/07 15:36:56;;;;;;;1.35;0.75;;;17.60;67.70;;;;;;4950704;28;20423;-83
2020/12/07 15:39:22;;;;;;;1.35;0.70;;;17.60;67.80;;;;;;4953930;28;20220;-84
2020/12/07 15:41:48;;;;;;;2.15;0.82;;;17.60;67.70;;;;;;4952147;28;20121;-82
2020/12/07 15:44:14;;;;;;;3.70;0.68;;;17.60;67.60;;;;;;4960649;28;20484;-83
2020/12/07 15:46:43;;;;;;;1.23;0.77;;;17.70;68.30;;;;;;4961580;28;20082;-82
2020/12/07 15:49:10;;;;;;;1.48;0.70;;;17.60;67.60;;;;;;4952971;28;20043;-83
2020/12/07 15:51:36;;;;;;;2.25;0.57;;;17.60;67.60;;;;;;4957505;28;20098;-82
2020/12/07 15:54:01;;;;;;;2.17;0.90;;;17.60;67.90;;;;;;4951724;28;20055;-84
2020/12/07 15:56:27;;;;;;;10.23;0.98;;;17.60;67.90;;;;;;4951279;28;20443;-81
2020/12/07 15:58:54;;;;;;;5.20;0.70;;;17.60;68.40;;;;;;4948895;28;20640;-82
2020/12/07 16:01:40;;;;;;;3.55;0.90;;;17.60;68.00;;;;;;4955854;28;20130;-81
2020/12/07 16:04:06;;;;;;;4.32;0.70;;;17.70;68.00;;;;;;4951185;28;20302;-81
2020/12/07 16:06:32;;;;;;;1.45;0.65;;;17.70;67.90;;;;;;4951316;28;20487;-80
2020/12/07 16:09:18;;;;;;;2.88;0.60;;;17.90;67.90;;;;;;4952394;28;21656;-81
2020/12/07 16:11:46;;;;;;;1.77;0.70;;;18.00;67.70;;;;;;4957744;28;20127;-82
2020/12/07 16:14:12;;;;;;;4.35;0.60;;;18.10;67.80;;;;;;4950656;28;20090;-81
2020/12/07 16:16:38;;;;;;;1.38;0.70;;;18.20;67.70;;;;;;4950201;28;20051;-80
2020/12/07 16:19:03;;;;;;;2.50;0.82;;;18.30;67.40;;;;;;4953022;28;20061;-81
2020/12/07 16:21:29;;;;;;;0.85;0.73;;;18.40;67.20;;;;;;4965307;28;20030;-81
2020/12/07 16:24:15;;;;;;;1.33;0.68;;;18.60;67.20;;;;;;4942435;28;20557;-81
2020/12/07 16:27:01;;;;;;;0.63;0.63;;;18.70;67.10;;;;;;4959436;28;20042;-81
2020/12/07 16:29:27;;;;;;;3.33;0.80;;;18.80;66.70;;;;;;4952465;28;20039;-81
2020/12/07 16:32:12;;;;;;;0.57;0.57;;;18.90;66.70;;;;;;4958822;28;20066;-81
2020/12/07 16:34:58;;;;;;;4.20;0.68;;;19.00;66.70;;;;;;4981819;28;20039;-81
2020/12/07 16:37:24;;;;;;;1.55;0.50;;;19.00;66.50;;;;;;4970260;28;20110;-82
2020/12/07 16:40:10;;;;;;;2.63;0.73;;;19.00;66.40;;;;;;4971605;28;20963;-81
2020/12/07 16:42:55;;;;;;;1.38;0.73;;;19.10;66.30;;;;;;4947561;28;20055;-82
2020/12/07 16:45:21;;;;;;;0.50;0.50;;;19.10;66.70;;;;;;4949929;28;20035;-82
2020/12/07 16:47:47;;;;;;;0.60;0.60;;;19.10;66.30;;;;;;4949267;28;20120;-81
2020/12/07 16:50:33;;;;;;;4.82;0.70;;;19.00;66.10;;;;;;4950306;28;20471;-82
2020/12/07 16:53:19;;;;;;;2.90;0.90;;;19.00;66.20;;;;;;4950596;28;20471;-82
2020/12/07 16:56:07;;;;;;;3.58;1.40;;;19.00;66.30;;;;;;4954300;28;20376;-82
2020/12/07 16:58:33;;;;;;;1.00;0.80;;;18.90;66.30;;;;;;4962896;28;20038;-82
2020/12/07 17:01:20;;;;;;;1.10;0.50;;;18.90;66.50;;;;;;4950673;28;20043;-82
2020/12/07 17:03:46;;;;;;;1.75;0.70;;;18.90;66.50;;;;;;4949077;28;20506;-82
2020/12/07 17:06:32;;;;;;;4.47;1.27;;;18.80;66.70;;;;;;4948964;28;20562;-81
2020/12/07 17:09:17;;;;;;;9.18;2.45;;;18.80;67.50;;;;;;4948960;28;20733;-81
2020/12/07 17:11:43;;;;;;;9.65;0.88;;;18.70;67.30;;;;;;4949488;28;20114;-82
2020/12/07 17:14:09;;;;;;;10.13;1.10;;;18.70;67.80;;;;;;4969534;28;20125;-82
2020/12/07 17:16:56;;;;;;;0.88;0.77;;;18.60;67.90;;;;;;4939911;28;20070;-82
2020/12/07 17:19:42;;;;;;;14.38;1.40;;;18.60;68.10;;;;;;4952364;28;20105;-79
2020/12/07 17:22:29;;;;;;;4.45;1.15;;;18.60;68.20;;;;;;4955938;28;20042;-81
2020/12/07 17:24:56;;;;;;;6.80;1.00;;;18.50;68.30;;;;;;4950817;28;20039;-81
2020/12/07 17:27:21;;;;;;;11.45;1.20;;;18.50;68.50;;;;;;4964823;28;20043;-85
2020/12/07 17:30:07;;;;;;;8.02;1.10;;;18.50;68.50;;;;;;4902375;28;20391;-83
2020/12/07 17:32:33;;;;;;;4.55;1.00;;;18.50;68.60;;;;;;4822314;28;20148;-84
2020/12/07 17:35:18;;;;;;;5.30;1.30;;;18.50;68.70;;;;;;4961483;28;20093;-77
2020/12/07 17:37:44;;;;;;;6.97;1.20;;;18.60;69.10;;;;;;4964138;28;20046;-81
2020/12/07 17:40:30;;;;;;;4.93;1.10;;;18.60;68.90;;;;;;4970673;28;20055;-81
2020/12/07 17:43:16;;;;;;;7.53;0.90;;;18.60;68.80;;;;;;4966724;28;20051;-81
2020/12/07 17:45:42;;;;;;;2.35;1.17;;;18.50;68.70;;;;;;4965808;28;20083;-81
2020/12/07 17:48:08;;;;;;;3.97;1.35;;;18.60;68.60;;;;;;4964632;28;20047;-81
2020/12/07 17:50:34;;;;;;;3.53;0.93;;;18.60;68.70;;;;;;4971859;28;20121;-81
2020/12/07 17:53:21;;;;;;;6.22;1.25;;;18.50;68.50;;;;;;4970718;28;20498;-81
2020/12/07 17:55:46;;;;;;;6.78;0.90;;;18.60;68.70;;;;;;4970018;28;20062;-82
2020/12/07 17:58:35;;;;;;;10.02;1.15;;;18.50;68.50;;;;;;4970701;28;20039;-80
2020/12/07 18:01:02;;;;;;;4.18;1.20;;;18.50;68.90;;;;;;4966792;28;20039;-82
2020/12/07 18:03:28;;;;;;;3.75;1.10;;;18.50;68.90;;;;;;4956244;28;20498;-85
2020/12/07 18:05:54;;;;;;;2.30;1.42;;;18.50;68.90;;;;;;4956839;28;20047;-83
2020/12/07 18:08:20;;;;;;;3.28;1.15;;;18.50;69.10;;;;;;4958410;28;20078;-82
2020/12/07 18:10:52;;;;;;;2.17;1.27;;;18.50;69.30;;;;;;4954264;28;20415;-83
2020/12/07 18:13:21;;;;;;;4.78;1.23;;;18.50;69.60;;;;;;4953775;28;20035;-83
2020/12/07 18:15:49;;;;;;;5.15;1.02;;;18.50;69.30;;;;;;4953814;28;20475;-84
2020/12/07 18:18:17;;;;;;;4.22;1.35;;;18.50;69.40;;;;;;4961171;28;20371;-82
2020/12/07 18:20:44;;;;;;;3.05;1.20;;;18.50;68.90;;;;;;4968622;28;20035;-84
2020/12/07 18:23:30;;;;;;;4.32;1.10;;;18.60;69.20;;;;;;4969181;28;20113;-84
2020/12/07 18:25:56;;;;;;;3.15;1.33;;;18.60;69.10;;;;;;4966262;28;20047;-83
2020/12/07 18:28:21;;;;;;;8.95;1.20;;;18.50;68.90;;;;;;4964349;28;20045;-85
2020/12/07 18:30:47;;;;;;;1.88;1.15;;;18.60;68.80;;;;;;4966117;28;20035;-85
2020/12/07 18:33:13;;;;;;;3.90;1.30;;;18.60;68.60;;;;;;4964416;28;20047;-84
2020/12/07 18:35:39;;;;;;;1.88;1.33;;;18.50;68.60;;;;;;4966184;28;20386;-84
2020/12/07 18:38:05;;;;;;;3.35;1.15;;;18.60;68.60;;;;;;4964043;28;20165;-86
2020/12/07 18:40:31;;;;;;;1.70;1.30;;;18.60;68.80;;;;;;4960777;28;20633;-87
2020/12/07 18:42:57;;;;;;;1.83;1.10;;;18.50;68.90;;;;;;4960872;28;20467;-85
2020/12/07 18:45:43;;;;;;;2.83;1.17;;;18.50;68.70;;;;;;4958685;28;20656;-86
2020/12/07 18:48:28;;;;;;;1.48;1.10;;;18.50;68.90;;;;;;4962397;28;20396;-85
2020/12/07 18:50:55;;;;;;;1.35;1.08;;;18.50;68.80;;;;;;4965377;28;20046;-85
2020/12/07 18:53:40;;;;;;;3.03;1.08;;;18.50;68.60;;;;;;4956548;28;20463;-85
2020/12/07 18:56:07;;;;;;;3.53;1.23;;;18.50;68.80;;;;;;4957064;28;20122;-84
2020/12/07 18:58:34;;;;;;;1.73;1.23;;;18.50;68.80;;;;;;4962971;28;20470;-85
2020/12/07 19:01:21;;;;;;;1.55;1.13;;;18.50;68.70;;;;;;4957242;28;20047;-84
2020/12/07 19:03:47;;;;;;;2.28;1.10;;;18.50;68.90;;;;;;4961123;28;20043;-85
2020/12/07 19:06:17;;;;;;;2.28;1.30;;;18.50;69.00;;;;;;4960245;28;20070;-84
2020/12/07 19:09:03;;;;;;;1.27;1.08;;;18.50;69.00;;;;;;4964182;28;20090;-84
2020/12/07 19:11:50;;;;;;;2.53;1.17;;;18.50;69.00;;;;;;4955386;28;20051;-86
2020/12/07 19:14:16;;;;;;;3.80;1.17;;;18.50;68.90;;;;;;4956562;28;20035;-83
2020/12/07 19:16:42;;;;;;;1.40;1.27;;;18.60;69.10;;;;;;4956619;28;20801;-84
2020/12/07 19:19:28;;;;;;;2.05;1.05;;;18.50;69.00;;;;;;4950485;28;20075;-84
2020/12/07 19:21:57;;;;;;;1.17;1.10;;;18.50;68.90;;;;;;4964039;28;20042;-86
2020/12/07 19:24:24;;;;;;;2.83;1.73;;;18.60;68.90;;;;;;4963624;28;20054;-85
2020/12/07 19:26:50;;;;;;;4.18;1.20;;;18.60;69.00;;;;;;4964887;28;21117;-85
2020/12/07 19:29:17;;;;;;;1.55;1.00;;;18.60;68.90;;;;;;4964935;28;20054;-85
2020/12/07 19:31:42;;;;;;;5.63;1.40;;;18.60;68.90;;;;;;4964565;28;20055;-85
2020/12/07 19:34:28;;;;;;;1.67;1.20;;;18.60;68.80;;;;;;4951310;28;20483;-83
2020/12/07 19:37:15;;;;;;;2.80;1.00;;;18.60;68.90;;;;;;4955711;28;20155;-84
2020/12/07 19:39:45;;;;;;;1.40;1.30;;;18.60;68.80;;;;;;4960271;28;20046;-85
2020/12/07 19:42:12;;;;;;;3.92;1.20;;;18.60;69.60;;;;;;4962181;28;20117;-84
2020/12/07 19:44:57;;;;;;;2.05;1.20;;;18.60;68.70;;;;;;4964881;28;20059;-85
2020/12/07 19:47:43;;;;;;;2.20;1.50;;;18.60;68.90;;;;;;4955350;28;20587;-84
2020/12/07 19:50:29;;;;;;;1.73;1.20;;;18.60;69.00;;;;;;4964240;28;20054;-84
2020/12/07 19:53:16;;;;;;;7.25;1.48;;;18.60;69.00;;;;;;4963524;28;20046;-83
2020/12/07 19:55:42;;;;;;;1.58;1.35;;;18.60;69.00;;;;;;4965026;28;20039;-77
2020/12/07 19:58:28;;;;;;;2.83;1.73;;;18.60;69.40;;;;;;4965930;28;20106;-80
2020/12/07 20:00:54;;;;;;;2.88;1.45;;;18.60;69.50;;;;;;4968302;28;20073;-85
2020/12/07 20:03:21;;;;;;;1.50;1.30;;;18.60;69.70;;;;;;4948915;28;20047;-80
2020/12/07 20:05:49;;;;;;;1.55;1.17;;;18.60;69.70;;;;;;4966722;28;20049;-81
2020/12/07 20:08:35;;;;;;;3.38;1.70;;;18.60;69.70;;;;;;4960997;28;20062;-77
2020/12/07 20:11:00;;;;;;;1.85;1.45;;;18.60;69.70;;;;;;4954759;28;20391;-83
2020/12/07 20:13:26;;;;;;;1.55;1.35;;;18.60;69.90;;;;;;4970829;28;20137;-76
2020/12/07 20:16:18;;;;;;;2.75;1.52;;;18.70;69.90;;;;;;4953289;28;20169;-81
2020/12/07 20:18:44;;;;;;;2.92;1.58;;;18.70;69.90;;;;;;4967782;28;20463;-82
2020/12/07 20:21:30;;;;;;;3.08;1.45;;;18.60;69.80;;;;;;4957101;28;20441;-82
2020/12/07 20:24:16;;;;;;;4.00;1.58;;;18.60;69.40;;;;;;4964045;28;20043;-82
2020/12/07 20:26:42;;;;;;;11.88;1.63;;;18.60;69.10;;;;;;4979832;28;20045;-82
2020/12/07 20:29:28;;;;;;;1.40;1.23;;;18.60;69.00;;;;;;4960951;28;20043;-82
2020/12/07 20:32:14;;;;;;;2.10;1.85;;;18.60;69.00;;;;;;4966629;28;20458;-81
2020/12/07 20:34:40;;;;;;;1.45;1.42;;;18.60;69.00;;;;;;4966585;28;20038;-82
2020/12/07 20:37:06;;;;;;;2.20;1.33;;;18.60;69.30;;;;;;4964589;28;20474;-83
2020/12/07 20:39:32;;;;;;;1.88;1.63;;;18.60;69.50;;;;;;4964774;28;20055;-80
2020/12/07 20:42:01;;;;;;;1.50;1.40;;;18.60;69.50;;;;;;4965221;28;20047;-83
2020/12/07 20:44:28;;;;;;;1.90;1.20;;;18.60;69.70;;;;;;4964403;28;20076;-79
2020/12/07 20:46:54;;;;;;;3.35;1.63;;;18.70;69.70;;;;;;4964350;28;20047;-78
2020/12/07 20:49:20;;;;;;;1.90;1.42;;;18.70;69.80;;;;;;4965221;28;20282;-75
2020/12/07 20:51:46;;;;;;;3.33;1.48;;;18.70;69.70;;;;;;4964035;28;20113;-79
2020/12/07 20:54:13;;;;;;;5.55;1.70;;;18.70;69.70;;;;;;4950407;28;20110;-82
2020/12/07 20:56:59;;;;;;;4.38;1.50;;;18.80;69.90;;;;;;4954700;28;20051;-85
2020/12/07 20:59:25;;;;;;;2.13;1.40;;;18.80;69.90;;;;;;4950263;28;20049;-79
2020/12/07 21:02:11;;;;;;;4.50;1.52;;;18.80;70.00;;;;;;4953900;28;20440;-84
2020/12/07 21:04:38;;;;;;;1.90;1.50;;;18.80;69.80;;;;;;4954054;28;20047;-76
2020/12/07 21:07:04;;;;;;;3.00;1.33;;;18.80;70.00;;;;;;4958539;28;20050;-84
2020/12/07 21:09:30;;;;;;;6.85;1.17;;;18.90;70.00;;;;;;4968146;28;20045;-75
2020/12/07 21:11:56;;;;;;;3.10;1.52;;;18.90;70.00;;;;;;4962619;28;20110;-81
2020/12/07 21:14:42;;;;;;;3.42;1.20;;;18.90;69.90;;;;;;4969218;28;20491;-78
2020/12/07 21:17:28;;;;;;;3.15;1.48;;;18.90;69.90;;;;;;4970988;28;20035;-80
2020/12/07 21:19:54;;;;;;;1.85;1.05;;;18.90;69.90;;;;;;4964799;28;20798;-79
2020/12/07 21:22:20;;;;;;;1.60;1.50;;;18.90;69.80;;;;;;4966735;28;20035;-87
2020/12/07 21:24:47;;;;;;;2.45;1.52;;;18.90;69.80;;;;;;4961789;28;20049;-77
2020/12/07 21:27:12;;;;;;;2.47;1.50;;;18.90;69.90;;;;;;4961839;28;20073;-81
2020/12/07 21:29:38;;;;;;;5.88;1.30;;;19.00;69.90;;;;;;4963387;28;20822;-79
2020/12/07 21:32:04;;;;;;;1.77;1.40;;;18.90;70.20;;;;;;4972119;28;20466;-84
2020/12/07 21:34:30;;;;;;;2.67;1.50;;;18.90;69.90;;;;;;4971723;28;20390;-79
2020/12/07 21:37:20;;;;;;;5.38;1.92;;;18.80;69.70;;;;;;4953578;28;20047;-77
2020/12/07 21:40:07;;;;;;;9.05;2.00;;;18.80;70.00;;;;;;4969392;28;20097;-81
2020/12/07 21:42:54;;;;;;;1.65;1.55;;;18.80;69.90;;;;;;4969377;28;20059;-81
2020/12/07 21:45:40;;;;;;;4.25;1.65;;;18.80;70.00;;;;;;4950620;28;20047;-79
2020/12/07 21:48:06;;;;;;;2.97;1.70;;;18.80;70.00;;;;;;4968197;28;20039;-83
2020/12/07 21:50:52;;;;;;;8.43;2.40;;;18.80;69.90;;;;;;4967897;28;20059;-77
2020/12/07 21:53:18;;;;;;;4.03;1.65;;;18.90;70.20;;;;;;4966543;28;20054;-78
2020/12/07 21:55:44;;;;;;;2.80;1.67;;;18.90;70.00;;;;;;4968439;28;20449;-77
2020/12/07 21:58:10;;;;;;;4.63;1.80;;;18.90;69.90;;;;;;4967975;28;20042;-78
2020/12/07 22:00:36;;;;;;;2.30;1.65;;;18.90;70.00;;;;;;4966500;28;20038;-78
2020/12/07 22:03:02;;;;;;;1.50;1.40;;;18.90;70.00;;;;;;4968496;28;20126;-76
2020/12/07 22:05:28;;;;;;;1.70;1.60;;;18.90;70.00;;;;;;4964591;28;20188;-79
2020/12/07 22:07:53;;;;;;;2.05;1.45;;;18.90;70.10;;;;;;4983259;28;20531;-77
2020/12/07 22:10:19;;;;;;;1.20;1.20;;;18.90;70.20;;;;;;4966847;28;20109;-79
2020/12/07 22:12:46;;;;;;;4.43;1.90;;;18.80;70.40;;;;;;4966573;28;20031;-79
2020/12/07 22:15:11;;;;;;;5.10;1.58;;;18.80;71.10;;;;;;4935436;29;20551;-80
2020/12/07 22:17:37;;;;;;;4.18;1.73;;;18.80;70.20;;;;;;4965247;28;20049;-78
2020/12/07 22:20:04;;;;;;;5.88;2.15;;;18.80;70.00;;;;;;4964779;28;20546;-78
2020/12/07 22:22:30;;;;;;;5.53;1.90;;;18.70;70.00;;;;;;4962444;28;20043;-83
2020/12/07 22:24:55;;;;;;;2.08;1.60;;;18.70;69.80;;;;;;4966672;28;20042;-81
2020/12/07 22:27:21;;;;;;;4.32;1.63;;;18.60;69.60;;;;;;4964414;28;20077;-79
2020/12/07 22:30:07;;;;;;;1.65;1.30;;;18.50;69.70;;;;;;4955851;28;20055;-84
2020/12/07 22:32:53;;;;;;;1.70;1.60;;;18.50;69.80;;;;;;4966704;28;20391;-79
2020/12/07 22:35:21;;;;;;;1.75;1.60;;;18.50;69.80;;;;;;4968367;28;20054;-83
2020/12/07 22:37:47;;;;;;;6.63;1.70;;;18.40;69.90;;;;;;4968923;28;20088;-84
2020/12/07 22:40:12;;;;;;;3.63;1.58;;;18.30;69.90;;;;;;4967973;28;20125;-83
2020/12/07 22:42:38;;;;;;;2.92;1.70;;;18.30;70.00;;;;;;4955709;28;20502;-82
2020/12/07 22:45:04;;;;;;;5.50;1.60;;;18.20;70.00;;;;;;4952195;28;20491;-83
2020/12/07 22:47:30;;;;;;;4.60;2.00;;;18.20;70.00;;;;;;4950661;28;20625;-82
2020/12/07 22:50:16;;;;;;;2.15;1.60;;;18.20;70.10;;;;;;4965547;28;20047;-80
2020/12/07 22:52:42;;;;;;;2.25;1.65;;;18.10;70.10;;;;;;4967067;28;20069;-78
2020/12/07 22:55:08;;;;;;;2.15;1.70;;;18.10;70.20;;;;;;4955256;28;20113;-79
2020/12/07 22:57:34;;;;;;;1.70;1.58;;;18.10;70.20;;;;;;4955086;28;20126;-78
2020/12/07 23:00:00;;;;;;;1.75;1.50;;;18.00;70.20;;;;;;4958395;28;20450;-78
2020/12/07 23:02:25;;;;;;;1.73;1.60;;;18.00;71.00;;;;;;4955394;28;20039;-78
2020/12/07 23:05:11;;;;;;;2.28;1.40;;;17.90;70.30;;;;;;4957306;28;20076;-86
2020/12/07 23:07:37;;;;;;;3.33;1.73;;;17.90;70.30;;;;;;4955468;28;20483;-78
2020/12/07 23:10:04;;;;;;;1.75;1.55;;;17.90;70.30;;;;;;4958898;28;20043;-80
2020/12/07 23:12:30;;;;;;;9.15;1.70;;;17.80;70.30;;;;;;4955060;28;20826;-81
2020/12/07 23:14:56;;;;;;;2.75;1.85;;;17.80;70.50;;;;;;4957432;28;20053;-82
2020/12/07 23:17:42;;;;;;;2.45;1.60;;;17.80;70.50;;;;;;4952540;28;20047;-82
2020/12/07 23:20:27;;;;;;;5.88;2.20;;;17.70;70.50;;;;;;4957158;28;20039;-81
2020/12/07 23:23:13;;;;;;;5.35;1.52;;;17.70;70.60;;;;;;4955710;28;20118;-82
2020/12/07 23:25:40;;;;;;;1.67;1.55;;;17.80;70.70;;;;;;4951250;28;20130;-81
2020/12/07 23:28:28;;;;;;;1.55;1.35;;;17.70;70.70;;;;;;4967323;28;20042;-81
2020/12/07 23:30:55;;;;;;;2.50;1.80;;;17.70;70.80;;;;;;4958320;28;20498;-81
2020/12/07 23:33:40;;;;;;;1.77;1.67;;;17.70;70.80;;;;;;4953040;28;20110;-81
2020/12/07 23:36:06;;;;;;;1.67;1.58;;;17.70;70.90;;;;;;4966715;28;20043;-82
2020/12/07 23:38:35;;;;;;;3.05;1.52;;;17.60;70.90;;;;;;4961900;28;20047;-82
2020/12/07 23:41:21;;;;;;;9.45;1.77;;;17.60;71.00;;;;;;4964423;28;20475;-81
2020/12/07 23:44:07;;;;;;;2.35;1.60;;;17.60;71.20;;;;;;4964068;28;20043;-83
2020/12/07 23:46:59;;;;;;;2.78;1.40;;;17.60;71.30;;;;;;4953183;28;20051;-81
2020/12/07 23:49:45;;;;;;;1.63;1.52;;;17.50;71.20;;;;;;4963898;28;20069;-80
2020/12/07 23:52:30;;;;;;;1.60;1.50;;;17.50;71.30;;;;;;4964610;28;20543;-81
2020/12/07 23:55:17;;;;;;;1.67;1.30;;;17.50;71.40;;;;;;4953009;28;20089;-82
2020/12/07 23:58:03;;;;;;;2.08;1.55;;;17.50;71.40;;;;;;4958692;28;20170;-82
